sensor_id;sensor_type;location;lat;lon;timestamp;pressure;altitude;pressure_sealevel;temperature;humidity
15558;BME280;7880;50.110;9.372;2023-02-15T00:01:58;0.599963722989196;;;0.625;100.0
15558;BME280;7880;50.110;9.372;2023-02-15T00:07:10;0.6150889121228829;;;0.625;100.0
15558;BME280;7880;50.110;9.372;2023-02-15T00:12:09;0.5747550802538172;;;0.625;100.0
15558;BME280;7880;50.110;9.372;2023-02-15T00:17:13;0.6604644952400122;;;0.687;100.0
15558;BME280;7880;50.110;9.372;2023-02-15T00:22:20;0.5445047185756267;;;0.5;100.0
15558;BME280;7880;50.110;9.372;2023-02-15T00:27:22;0.5596298981050495;;;0.625;100.0
15558;BME280;7880;50.110;9.372;2023-02-15T00:32:27;0.3781279166287277;;;0.437;100.0
15558;BME280;7880;50.110;9.372;2023-02-15T00:37:32;0.4386285352113191;;;0.437;100.0
15558;BME280;7880;50.110;9.372;2023-02-15T00:42:42;0.36804448427283204;;;0.437;100.0
15558;BME280;7880;50.110;9.372;2023-02-15T00:47:41;0.45879541738540863;;;0.5;100.0
15558;BME280;7880;50.110;9.372;2023-02-15T00:52:45;0.514254367374815;;;0.5;100.0
15558;BME280;7880;50.110;9.372;2023-02-15T00:57:50;0.34787762305350045;;;0.437;100.0
15558;BME280;7880;50.110;9.372;2023-02-15T01:02:56;0.549546444794396;;;0.562;100.0
15558;BME280;7880;50.110;9.372;2023-02-15T01:08:02;0.5293795416655485;;;0.562;100.0
15558;BME280;7880;50.110;9.372;2023-02-15T01:13:09;0.41341993904206903;;;0.437;100.0
15558;BME280;7880;50.110;9.372;2023-02-15T01:18:12;0.3176273399556521;;;0.375;100.0
15558;BME280;7880;50.110;9.372;2023-02-15T01:23:17;0.4083782206813339;;;0.437;100.0
15558;BME280;7880;50.110;9.372;2023-02-15T01:28:26;0.23695996958413162;;;0.25;100.0
15558;BME280;7880;50.110;9.372;2023-02-15T01:33:34;0.34787762305350045;;;0.375;100.0
15558;BME280;7880;50.110;9.372;2023-02-15T01:38:42;0.3529193379217759;;;0.375;100.0
15558;BME280;7880;50.110;9.372;2023-02-15T01:43:50;0.12100075520575046;;;0.187;100.0
15558;BME280;7880;50.110;9.372;2023-02-15T01:48:46;0.3176273399556521;;;0.312;100.0
15558;BME280;7880;50.110;9.372;2023-02-15T01:53:51;0.3125856271246448;;;0.375;100.0
15558;BME280;7880;50.110;9.372;2023-02-15T01:58:55;0.1865429009369109;;;0.312;100.0
15558;BME280;7880;50.110;9.372;2023-02-15T02:04:04;0.23191826140973718;;;0.312;100.0
15558;BME280;7880;50.110;9.372;2023-02-15T02:09:06;0.2470433868060354;;;0.312;100.0
15558;BME280;7880;50.110;9.372;2023-02-15T02:14:08;0.3025022023357451;;;0.312;100.0
15558;BME280;7880;50.110;9.372;2023-02-15T02:19:41;0.4537536964053288;;;0.5;100.0
15558;BME280;7880;50.110;9.372;2023-02-15T02:25:01;0.25208509585354477;;;0.375;100.0
15558;BME280;7880;50.110;9.372;2023-02-15T02:30:08;0.33779419419006446;;;0.375;100.0
15558;BME280;7880;50.110;9.372;2023-02-15T02:34:59;0.25208509585354477;;;0.312;100.0
15558;BME280;7880;50.110;9.372;2023-02-15T02:40:01;0.3579610530810896;;;0.312;100.0
15558;BME280;7880;50.110;9.372;2023-02-15T02:45:04;0.2571268051920924;;;0.312;100.0
15558;BME280;7880;50.110;9.372;2023-02-15T02:50:08;0.21175143162254245;;;0.312;100.0
15558;BME280;7880;50.110;9.372;2023-02-15T02:55:23;0.2772936454566661;;;0.312;100.0
15558;BME280;7880;50.110;9.372;2023-02-15T03:00:17;0.1663760816270951;;;0.187;100.0
15558;BME280;7880;50.110;9.372;2023-02-15T03:05:25;0.2924187787109986;;;0.312;100.0
15558;BME280;7880;50.110;9.372;2023-02-15T03:10:28;0.09579225071356631;;;0.125;100.0
15558;BME280;7880;50.110;9.372;2023-02-15T03:16:26;0.3025022023357451;;;0.312;100.0
15558;BME280;7880;50.110;9.372;2023-02-15T03:21:11;0.2571268051920924;;;0.312;100.0
15558;BME280;7880;50.110;9.372;2023-02-15T03:26:21;0.2974604903778527;;;0.312;100.0
15558;BME280;7880;50.110;9.372;2023-02-15T03:31:18;0.25208509585354477;;;0.25;100.0
15558;BME280;7880;50.110;9.372;2023-02-15T03:36:24;0.10083395102992654;;;0.125;100.0
15558;BME280;7880;50.110;9.372;2023-02-15T03:41:33;0.20670972490333953;;;0.187;100.0
15558;BME280;7880;50.110;9.372;2023-02-15T03:46:40;0.1966263123380486;;;0.187;100.0
15558;BME280;7880;50.110;9.372;2023-02-15T03:51:37;0.1260424569773022;;;0.187;100.0
15558;BME280;7880;50.110;9.372;2023-02-15T04:03:09;0.11595905372523703;;;0.187;100.0
15558;BME280;7880;50.110;9.372;2023-02-15T04:08:03;0.12100075520575046;;;0.125;100.0
15558;BME280;7880;50.110;9.372;2023-02-15T04:13:13;0.0655420549272094;;;0.062;100.0
15558;BME280;7880;50.110;9.372;2023-02-15T04:18:18;0.040333566442132;;;0.062;100.0
15558;BME280;7880;50.110;9.372;2023-02-15T04:30:25;-0.015125082613667473;;;0.0;100.0
15558;BME280;7880;50.110;9.372;2023-02-15T04:35:17;-0.0252084695675876;;;0.062;100.0
15558;BME280;7880;50.110;9.372;2023-02-15T04:40:20;-0.11091721167322248;;;-0.062;100.0
15558;BME280;7880;50.110;9.372;2023-02-15T04:45:29;-0.035291855357354504;;;-0.062;100.0
15558;BME280;7880;50.110;9.372;2023-02-15T04:50:29;-0.18654250250547194;;;-0.187;100.0
15558;BME280;7880;50.110;9.372;2023-02-15T04:55:33;-0.12604227507836185;;;-0.062;100.0
15558;BME280;7880;50.110;9.372;2023-02-15T05:00:36;0.0655420549272094;;;0.062;100.0
15558;BME280;7880;50.110;9.372;2023-02-15T05:05:40;0.025208476843545213;;;0.062;100.0
15558;BME280;7880;50.110;9.372;2023-02-15T05:10:44;-0.005041694495594129;;;0.062;100.0
15558;BME280;7880;50.110;9.372;2023-02-15T05:15:48;-0.015125082613667473;;;0.0;100.0
15558;BME280;7880;50.110;9.372;2023-02-15T05:20:50;-0.015125082613667473;;;0.062;100.0
15558;BME280;7880;50.110;9.372;2023-02-15T05:32:49;-0.08570876684389077;;;-0.062;100.0
15558;BME280;7880;50.110;9.372;2023-02-15T05:37:52;-0.02016677623614669;;;0.0;100.0
15558;BME280;7880;50.110;9.372;2023-02-15T05:43:01;0.0655420549272094;;;0.125;100.0
15558;BME280;7880;50.110;9.372;2023-02-15T05:48:00;0.11091735253576189;;;0.187;100.0
15558;BME280;7880;50.110;9.372;2023-02-15T05:53:03;0.08570885095396079;;;0.125;100.0
15558;BME280;7880;50.110;9.372;2023-02-15T05:58:17;0.07562545235850848;;;0.125;100.0
15558;BME280;7880;50.110;9.372;2023-02-15T06:03:12;0.0605003566481173;;;0.062;100.0
15558;BME280;7880;50.110;9.372;2023-02-15T06:08:24;-0.10587552328943275;;;-0.062;100.0
15558;BME280;7880;50.110;9.372;2023-02-15T06:13:23;-0.16133407950401307;;;-0.062;100.0
15558;BME280;7880;50.110;9.372;2023-02-15T06:18:44;-0.0453752399829682;;;-0.062;100.0
15558;BME280;7880;50.110;9.372;2023-02-15T06:23:31;-0.18654250250547194;;;-0.062;100.0
15558;BME280;7880;50.110;9.372;2023-02-15T06:28:37;-0.015125082613667473;;;0.0;100.0
15558;BME280;7880;50.110;9.372;2023-02-15T06:33:39;-0.16637576468638143;;;-0.062;100.0
15558;BME280;7880;50.110;9.372;2023-02-15T06:38:42;-0.08570876684389077;;;0.0;100.0
15558;BME280;7880;50.110;9.372;2023-02-15T06:43:54;-0.015125082613667473;;;0.062;100.0
15558;BME280;7880;50.110;9.372;2023-02-15T06:48:51;-0.005041694495594129;;;0.0;100.0
15558;BME280;7880;50.110;9.372;2023-02-15T06:53:55;0.10587565163732507;;;0.125;100.0
15558;BME280;7880;50.110;9.372;2023-02-15T06:59:03;-0.10587552328943275;;;0.0;100.0
15558;BME280;7880;50.110;9.372;2023-02-15T07:04:05;0.0605003566481173;;;0.125;100.0
15558;BME280;7880;50.110;9.372;2023-02-15T07:09:23;-0.0252084695675876;;;0.062;100.0
15558;BME280;7880;50.110;9.372;2023-02-15T07:14:13;0.015125085233012214;;;0.062;100.0
15558;BME280;7880;50.110;9.372;2023-02-15T07:19:17;0.13612586139352062;;;0.125;100.0
15558;BME280;7880;50.110;9.372;2023-02-15T07:24:27;0.025208476843545213;;;0.125;100.0
15558;BME280;7880;50.110;9.372;2023-02-15T07:29:27;0.05545865866006352;;;0.125;100.0
15558;BME280;7880;50.110;9.372;2023-02-15T07:34:40;-0.09075045639183373;;;0.062;100.0
15558;BME280;7880;50.110;9.372;2023-02-15T07:39:34;0.0;;;0.062;100.0
15558;BME280;7880;50.110;9.372;2023-02-15T07:44:38;0.13108415903989226;;;0.187;100.0
15558;BME280;7880;50.110;9.372;2023-02-15T07:49:45;0.04537526355707087;;;0.125;100.0
15558;BME280;7880;50.110;9.372;2023-02-15T07:54:49;0.14116756403818725;;;0.187;100.0
15558;BME280;7880;50.110;9.372;2023-02-15T07:59:50;0.21175143162254245;;;0.25;100.0
15558;BME280;7880;50.110;9.372;2023-02-15T08:04:56;0.13612586139352062;;;0.25;100.0
15558;BME280;7880;50.110;9.372;2023-02-15T08:10:05;0.3075439145846758;;;0.375;100.0
15558;BME280;7880;50.110;9.372;2023-02-15T08:15:07;0.34787762305350045;;;0.375;100.0
15558;BME280;7880;50.110;9.372;2023-02-15T08:20:10;0.3075439145846758;;;0.437;100.0
15558;BME280;7880;50.110;9.372;2023-02-15T08:25:18;0.2974604903778527;;;0.375;100.0
15558;BME280;7880;50.110;9.372;2023-02-15T08:30:21;0.2772936454566661;;;0.375;100.0
15558;BME280;7880;50.110;9.372;2023-02-15T08:35:33;0.3327524801949039;;;0.375;100.0
15558;BME280;7880;50.110;9.372;2023-02-15T08:40:29;0.4638371386565268;;;0.5;100.0
15558;BME280;7880;50.110;9.372;2023-02-15T08:45:32;0.514254367374815;;;0.562;100.0
15558;BME280;7880;50.110;9.372;2023-02-15T08:50:37;0.4940874723950401;;;0.562;100.0
15558;BME280;7880;50.110;9.372;2023-02-15T08:55:41;0.5646716251969337;;;0.625;100.0
15558;BME280;7880;50.110;9.372;2023-02-15T09:00:46;0.6302141038759146;;;0.687;100.0
15558;BME280;7880;50.110;9.372;2023-02-15T09:05:49;0.6201306424161885;;;0.687;100.0
15558;BME280;7880;50.110;9.372;2023-02-15T09:10:54;0.6705479613563512;;;0.75;100.0
15558;BME280;7880;50.110;9.372;2023-02-15T09:16:04;0.5192960918473546;;;0.625;100.0
15558;BME280;7880;50.110;9.372;2023-02-15T09:21:11;0.7007983666902874;;;0.75;100.0
15558;BME280;7880;50.110;9.372;2023-02-15T09:26:17;0.5697133525798563;;;0.625;100.0
15558;BME280;7880;50.110;9.372;2023-02-15T09:31:23;0.7512157321965788;;;0.812;100.0
15558;BME280;7880;50.110;9.372;2023-02-15T09:36:19;1.5175632711558138;;;1.375;100.0
15558;BME280;7880;50.110;9.372;2023-02-15T09:41:33;1.0033029962854925;;;1.125;100.0
15558;BME280;7880;50.110;9.372;2023-02-15T09:46:43;1.0990963474148885;;;1.125;100.0
15558;BME280;7880;50.110;9.372;2023-02-15T09:52:47;1.1091798641718924;;;1.187;100.0
15558;BME280;7880;50.110;9.372;2023-02-15T09:57:38;1.2352239218598697;;;1.25;100.0
15558;BME280;7880;50.110;9.372;2023-02-15T10:03:06;1.0537205364147666;;;1.125;100.0
15558;BME280;7880;50.110;9.372;2023-02-15T10:08:12;1.2352239218598697;;;1.25;100.0
15558;BME280;7880;50.110;9.372;2023-02-15T10:13:03;1.305808673618594;;;1.312;100.0
15558;BME280;7880;50.110;9.372;2023-02-15T10:18:22;1.4066441322269383;;;1.437;100.0
15558;BME280;7880;50.110;9.372;2023-02-15T10:23:16;1.3864770311920438;;;1.5;100.0
15558;BME280;7880;50.110;9.372;2023-02-15T10:28:18;1.320933984988369;;;1.375;100.0
15558;BME280;7880;50.110;9.372;2023-02-15T10:33:20;1.3864770311920438;;;1.437;100.0
15558;BME280;7880;50.110;9.372;2023-02-15T10:38:28;1.4671454632712995;;;1.562;100.0
15558;BME280;7880;50.110;9.372;2023-02-15T10:43:30;1.4016023565316573;;;1.437;100.0
15558;BME280;7880;50.110;9.372;2023-02-15T10:48:40;1.4419365702429787;;;1.5;100.0
15558;BME280;7880;50.110;9.372;2023-02-15T10:53:43;1.6083153986895922;;;1.625;100.0
15558;BME280;7880;50.110;9.372;2023-02-15T10:58:47;1.7444437667960302;;;1.75;100.0
15558;BME280;7880;50.110;9.372;2023-02-15T11:03:48;1.6486497078614775;;;1.687;100.0
15558;BME280;7880;50.110;9.372;2023-02-15T11:08:50;1.6789004519640003;;;1.687;100.0
15558;BME280;7880;50.110;9.372;2023-02-15T11:13:53;1.7394019716011826;;;1.75;100.0
15558;BME280;7880;50.110;9.372;2023-02-15T11:18:57;1.870488741254667;;;1.875;100.0
15558;BME280;7880;50.110;9.372;2023-02-15T11:24:10;1.920906781969825;;;1.937;100.0
15558;BME280;7880;50.110;9.372;2023-02-15T11:29:10;1.880572347069392;;;1.937;100.0
15558;BME280;7880;50.110;9.372;2023-02-15T11:34:17;1.9461158132413403;;;2.0;100.0
15558;BME280;7880;50.110;9.372;2023-02-15T11:39:21;1.9511576203687582;;;2.0;100.0
15558;BME280;7880;50.110;9.372;2023-02-15T11:44:27;1.930990393605316;;;2.0;100.0
15558;BME280;7880;50.110;9.372;2023-02-15T11:49:31;2.011659328598762;;;2.062;100.0
15558;BME280;7880;50.110;9.372;2023-02-15T11:54:29;2.087286522821523;;;2.125;100.0
15558;BME280;7880;50.110;9.372;2023-02-15T11:59:44;2.1780392423272135;;;2.187;100.0
15558;BME280;7880;50.110;9.372;2023-02-15T12:04:42;2.062077450804645;;;2.125;100.0
15558;BME280;7880;50.110;9.372;2023-02-15T12:09:51;2.082244707836071;;;2.062;100.0
15558;BME280;7880;50.110;9.372;2023-02-15T12:14:48;2.107453785673715;;;2.125;100.0
15558;BME280;7880;50.110;9.372;2023-02-15T12:19:56;2.4906326646218075;;;2.375;100.0
15558;BME280;7880;50.110;9.372;2023-02-15T12:25:21;2.546092904784018;;;2.5;100.0
15558;BME280;7880;50.110;9.372;2023-02-15T12:30:06;2.3897959545487537;;;2.437;100.0
15558;BME280;7880;50.110;9.372;2023-02-15T12:35:13;2.480548988375813;;;2.562;100.0
15558;BME280;7880;50.110;9.372;2023-02-15T12:40:21;2.515841860329965;;;2.5;100.0
15558;BME280;7880;50.110;9.372;2023-02-15T12:45:24;2.515841860329965;;;2.5;100.0
15558;BME280;7880;50.110;9.372;2023-02-15T12:50:33;2.4049214536382353;;;2.437;100.0
15558;BME280;7880;50.110;9.372;2023-02-15T12:55:32;2.546092904784018;;;2.5;100.0
15558;BME280;7880;50.110;9.372;2023-02-15T13:00:35;2.556176588597009;;;2.562;100.0
15558;BME280;7880;50.110;9.372;2023-02-15T13:05:41;2.6822227344848217;;;2.687;100.0
15558;BME280;7880;50.110;9.372;2023-02-15T13:10:41;2.7931434933329;;;2.75;100.0
15558;BME280;7880;50.110;9.372;2023-02-15T13:15:45;2.8385202080069574;;;2.812;100.0
15558;BME280;7880;50.110;9.372;2023-02-15T13:20:46;2.8486039255803917;;;2.812;100.0
15558;BME280;7880;50.110;9.372;2023-02-15T13:25:51;2.566260273574153;;;2.625;100.0
15558;BME280;7880;50.110;9.372;2023-02-15T13:30:54;2.6065950251242613;;;2.625;100.0
15558;BME280;7880;50.110;9.372;2023-02-15T13:36:04;2.500716342031956;;;2.5;100.0
15558;BME280;7880;50.110;9.372;2023-02-15T13:41:11;2.6217205617576838;;;2.562;100.0
15558;BME280;7880;50.110;9.372;2023-02-15T13:46:28;2.485590826353291;;;2.5;100.0
15558;BME280;7880;50.110;9.372;2023-02-15T13:51:24;2.500716342031956;;;2.437;100.0
15558;BME280;7880;50.110;9.372;2023-02-15T13:56:36;2.4906326646218075;;;2.437;100.0
15558;BME280;7880;50.110;9.372;2023-02-15T14:01:34;2.5259255406504963;;;2.5;100.0
15558;BME280;7880;50.110;9.372;2023-02-15T14:06:48;2.5612184309400616;;;2.5;100.0
15558;BME280;7880;50.110;9.372;2023-02-15T14:11:42;2.556176588597009;;;2.5;100.0
15558;BME280;7880;50.110;9.372;2023-02-15T14:15:38;2.546092904784018;;;2.562;100.0
15558;BME280;7880;50.110;9.372;2023-02-15T14:20:49;2.515841860329965;;;2.562;100.0
15558;BME280;7880;50.110;9.372;2023-02-15T14:25:47;2.4956745031813625;;;2.5;100.0
15558;BME280;7880;50.110;9.372;2023-02-15T14:30:49;2.4351724596752318;;;2.437;100.0
15558;BME280;7880;50.110;9.372;2023-02-15T14:35:52;2.510800020606257;;;2.437;100.0
15558;BME280;7880;50.110;9.372;2023-02-15T14:41:06;2.5309673812473195;;;2.5;100.0
15558;BME280;7880;50.110;9.372;2023-02-15T14:46:10;2.616678715922171;;;2.562;100.0
15558;BME280;7880;50.110;9.372;2023-02-15T14:51:07;4.744363511732081;;;4.5;100.0
15558;BME280;7880;50.110;9.372;2023-02-15T14:56:19;2.7578505093290007;;;3.062;100.0
15558;BME280;7880;50.110;9.372;2023-02-15T15:01:11;2.717515687929699;;;2.687;100.0
15558;BME280;7880;50.110;9.372;2023-02-15T15:06:24;2.4502979666227476;;;2.375;100.0
15558;BME280;7880;50.110;9.372;2023-02-15T15:11:45;2.243582931725541;;;2.187;100.0
15558;BME280;7880;50.110;9.372;2023-02-15T15:16:35;2.2536665806139355;;;2.125;100.0
15558;BME280;7880;50.110;9.372;2023-02-15T15:22:03;2.062077450804645;;;2.062;100.0
15558;BME280;7880;50.110;9.372;2023-02-15T15:27:41;2.2385411077179014;;;2.125;100.0
15558;BME280;7880;50.110;9.372;2023-02-15T15:32:31;1.8351961300708353;;;1.875;100.0
15558;BME280;7880;50.110;9.372;2023-02-15T15:37:47;1.9057813666993753;;;1.812;100.0
15558;BME280;7880;50.110;9.372;2023-02-15T15:42:39;1.8099871308135334;;;1.75;100.0
15558;BME280;7880;50.110;9.372;2023-02-15T15:47:56;1.8251125294947996;;;1.687;100.0
15558;BME280;7880;50.110;9.372;2023-02-15T15:52:41;1.683942243666388;;;1.625;100.0
15558;BME280;7880;50.110;9.372;2023-02-15T15:57:46;1.6486497078614775;;;1.625;100.0
15558;BME280;7880;50.110;9.372;2023-02-15T16:02:50;1.6335243397392332;;;1.562;100.0
15558;BME280;7880;50.110;9.372;2023-02-15T16:07:54;1.51252148905769;;;1.5;100.0
15558;BME280;7880;50.110;9.372;2023-02-15T16:12:58;1.5024379257345573;;;1.5;100.0
15558;BME280;7880;50.110;9.372;2023-02-15T16:18:05;1.557897538418183;;;1.437;100.0
15558;BME280;7880;50.110;9.372;2023-02-15T16:23:26;1.4268112379184459;;;1.375;100.0
15558;BME280;7880;50.110;9.372;2023-02-15T16:28:29;1.3814352566609158;;;1.312;100.0
15558;BME280;7880;50.110;9.372;2023-02-15T16:33:22;1.2553909879701677;;;1.25;100.0
15558;BME280;7880;50.110;9.372;2023-02-15T16:38:47;1.210015095770359;;;1.187;100.0
15558;BME280;7880;50.110;9.372;2023-02-15T16:43:40;1.2755580587370787;;;1.187;100.0
15558;BME280;7880;50.110;9.372;2023-02-15T16:48:46;1.245307454332942;;;1.187;100.0
15558;BME280;7880;50.110;9.372;2023-02-15T16:53:52;1.1192633820930495;;;1.125;100.0
15558;BME280;7880;50.110;9.372;2023-02-15T16:58:54;1.07892931739334;;;1.125;100.0
15558;BME280;7880;50.110;9.372;2023-02-15T17:04:11;1.2352239218598697;;;1.187;100.0
15558;BME280;7880;50.110;9.372;2023-02-15T17:09:14;1.0285117627121507;;;1.0;100.0
15558;BME280;7880;50.110;9.372;2023-02-15T17:14:12;0.9579272350529209;;;0.875;100.0
15558;BME280;7880;50.110;9.372;2023-02-15T17:19:15;0.9680107355117797;;;0.937;100.0
15558;BME280;7880;50.110;9.372;2023-02-15T17:24:17;0.9125514973944518;;;0.875;100.0
15558;BME280;7880;50.110;9.372;2023-02-15T17:29:24;1.1797645140672102;;;1.062;100.0
15558;BME280;7880;50.110;9.372;2023-02-15T17:35:07;0.836925320350565;;;0.812;100.0
15558;BME280;7880;50.110;9.372;2023-02-15T17:39:52;0.9730524861777667;;;0.875;100.0
15558;BME280;7880;50.110;9.372;2023-02-15T17:45:01;0.9680107355117797;;;0.937;100.0
15558;BME280;7880;50.110;9.372;2023-02-15T17:50:06;0.6755896948510781;;;0.75;100.0
15558;BME280;7880;50.110;9.372;2023-02-15T17:55:42;1.0890128318220378;;;0.937;100.0
15558;BME280;7880;50.110;9.372;2023-02-15T18:14:06;0.7764244258636609;;;0.812;100.0
15558;BME280;7880;50.110;9.372;2023-02-15T18:19:15;0.7814661654701922;;;0.812;100.0
15558;BME280;7880;50.110;9.372;2023-02-15T18:24:14;0.7814661654701922;;;0.75;100.0
15558;BME280;7880;50.110;9.372;2023-02-15T18:29:14;0.8923845104465726;;;0.812;100.0
15558;BME280;7880;50.110;9.372;2023-02-15T18:34:22;0.7915496455563698;;;0.75;100.0
15558;BME280;7880;50.110;9.372;2023-02-15T18:39:26;0.7612992087902967;;;0.75;100.0
15558;BME280;7880;50.110;9.372;2023-02-15T18:44:24;0.7663409475237131;;;0.75;100.0
15558;BME280;7880;50.110;9.372;2023-02-15T18:49:45;0.7915496455563698;;;0.75;100.0
15558;BME280;7880;50.110;9.372;2023-02-15T18:54:40;0.6806314286368433;;;0.687;100.0
15558;BME280;7880;50.110;9.372;2023-02-15T18:59:41;0.5092126431933138;;;0.562;100.0
15558;BME280;7880;50.110;9.372;2023-02-15T19:04:48;0.6856731627136469;;;0.625;100.0
15558;BME280;7880;50.110;9.372;2023-02-15T19:09:53;0.6150889121228829;;;0.625;100.0
15558;BME280;7880;50.110;9.372;2023-02-15T19:14:56;0.6806314286368433;;;0.625;100.0
15558;BME280;7880;50.110;9.372;2023-02-15T19:19:57;0.6402975664997939;;;0.625;100.0
15558;BME280;7880;50.110;9.372;2023-02-15T19:23:54;0.5697133525798563;;;0.625;100.0
15558;BME280;7880;50.110;9.372;2023-02-15T19:29:03;0.6604644952400122;;;0.625;100.0
15558;BME280;7880;50.110;9.372;2023-02-15T19:34:11;0.549546444794396;;;0.562;100.0
15558;BME280;7880;50.110;9.372;2023-02-15T19:39:20;0.6150889121228829;;;0.625;100.0
15558;BME280;7880;50.110;9.372;2023-02-15T19:44:10;0.4789623042161111;;;0.437;100.0
15558;BME280;7880;50.110;9.372;2023-02-15T19:49:14;0.42854509587050416;;;0.437;100.0
15558;BME280;7880;50.110;9.372;2023-02-15T19:54:28;0.6604644952400122;;;0.687;100.0
15558;BME280;7880;50.110;9.372;2023-02-15T19:59:25;0.741132256767014;;;0.687;100.0
15558;BME280;7880;50.110;9.372;2023-02-15T20:04:26;0.7108818374632392;;;0.687;100.0
15558;BME280;7880;50.110;9.372;2023-02-15T20:09:32;0.5646716251969337;;;0.625;100.0
15558;BME280;7880;50.110;9.372;2023-02-15T20:14:42;0.5545881713042036;;;0.625;100.0
15558;BME280;7880;50.110;9.372;2023-02-15T20:19:52;0.695756631740369;;;0.687;100.0
15558;BME280;7880;50.110;9.372;2023-02-15T20:24:48;0.6655062281526625;;;0.687;100.0
15558;BME280;7880;50.110;9.372;2023-02-15T20:29:56;0.7209653094003443;;;0.687;100.0
15558;BME280;7880;50.110;9.372;2023-02-15T20:34:54;0.5697133525798563;;;0.562;100.0
15558;BME280;7880;50.110;9.372;2023-02-15T20:39:58;0.5293795416655485;;;0.562;100.0
15558;BME280;7880;50.110;9.372;2023-02-15T20:45:18;0.4940874723950401;;;0.5;100.0
15558;BME280;7880;50.110;9.372;2023-02-15T20:50:06;0.5949219938600436;;;0.562;100.0
15558;BME280;7880;50.110;9.372;2023-02-15T20:55:15;0.39829478483297864;;;0.5;100.0
15558;BME280;7880;50.110;9.372;2023-02-15T21:00:18;0.36804448427283204;;;0.437;100.0
15558;BME280;7880;50.110;9.372;2023-02-15T21:05:20;0.5394629926478955;;;0.5;100.0
15558;BME280;7880;50.110;9.372;2023-02-15T21:10:27;0.3529193379217759;;;0.375;100.0
15558;BME280;7880;50.110;9.372;2023-02-15T21:15:31;0.4991291957034264;;;0.5;100.0
15558;BME280;7880;50.110;9.372;2023-02-15T21:20:34;0.5293795416655485;;;0.562;100.0
15558;BME280;7880;50.110;9.372;2023-02-15T21:25:39;0.4840040266513824;;;0.5;100.0
15558;BME280;7880;50.110;9.372;2023-02-15T21:30:45;0.4991291957034264;;;0.562;100.0
15558;BME280;7880;50.110;9.372;2023-02-15T21:35:51;0.4789623042161111;;;0.5;100.0
15558;BME280;7880;50.110;9.372;2023-02-15T21:40:51;0.4991291957034264;;;0.5;100.0
15558;BME280;7880;50.110;9.372;2023-02-15T21:52:58;0.47392058207187804;;;0.5;100.0
15558;BME280;7880;50.110;9.372;2023-02-15T21:58:01;0.3579610530810896;;;0.437;100.0
15558;BME280;7880;50.110;9.372;2023-02-15T22:03:04;0.38316963324323294;;;0.437;100.0
15558;BME280;7880;50.110;9.372;2023-02-15T22:08:12;0.38316963324323294;;;0.5;100.0
15558;BME280;7880;50.110;9.372;2023-02-15T22:13:27;0.3176273399556521;;;0.312;100.0
15558;BME280;7880;50.110;9.372;2023-02-15T22:18:20;0.42854509587050416;;;0.437;100.0
15558;BME280;7880;50.110;9.372;2023-02-15T22:23:25;0.3125856271246448;;;0.375;100.0
15558;BME280;7880;50.110;9.372;2023-02-15T22:28:31;0.36804448427283204;;;0.375;100.0
15558;BME280;7880;50.110;9.372;2023-02-15T22:33:34;0.23695996958413162;;;0.312;100.0
15558;BME280;7880;50.110;9.372;2023-02-15T22:38:44;0.26721022474230266;;;0.375;100.0
15558;BME280;7880;50.110;9.372;2023-02-15T22:43:49;0.0907505506882444;;;0.187;100.0
15558;BME280;7880;50.110;9.372;2023-02-15T22:48:49;0.3226690530776978;;;0.312;100.0
15558;BME280;7880;50.110;9.372;2023-02-15T22:53:53;0.33779419419006446;;;0.312;100.0
15558;BME280;7880;50.110;9.372;2023-02-15T22:59:05;0.2571268051920924;;;0.25;100.0
15558;BME280;7880;50.110;9.372;2023-02-15T23:04:04;0.2571268051920924;;;0.25;100.0
15558;BME280;7880;50.110;9.372;2023-02-15T23:09:07;0.23191826140973718;;;0.312;100.0
15558;BME280;7880;50.110;9.372;2023-02-15T23:14:31;0.3075439145846758;;;0.375;100.0
15558;BME280;7880;50.110;9.372;2023-02-15T23:19:17;0.21175143162254245;;;0.25;100.0
15558;BME280;7880;50.110;9.372;2023-02-15T23:24:22;0.20670972490333953;;;0.25;100.0
15558;BME280;7880;50.110;9.372;2023-02-15T23:29:27;0.1865429009369109;;;0.187;100.0
15558;BME280;7880;50.110;9.372;2023-02-15T23:34:34;0.1815011956728995;;;0.187;100.0
15558;BME280;7880;50.110;9.372;2023-02-15T23:46:32;0.13612586139352062;;;0.125;100.0
15558;BME280;7880;50.110;9.372;2023-02-15T23:51:40;0.1663760816270951;;;0.187;100.0
15558;BME280;7880;50.110;9.372;2023-02-15T23:56:48;0.2621685148216784;;;0.25;100.0
